Time;durP1;ratioP1;P1;durP2;ratioP2;P2;SDS_P1;SDS_P2;PMS_P1;PMS_P2;Temp;Humidity;BMP_temperature;BMP_pressure;BME280_temperature;BME280_humidity;BME280_pressure;Samples;Min_cycle;Max_cycle;Signal;HPM_P1;HPM_P2
2024/01/07 00:00:01;;;;;;;8.57;7.73;;;;;;;4.70;90.18;94796.06;4927066;29;20623;-87
2024/01/07 00:03:03;;;;;;;9.37;8.40;;;;;;;4.66;90.12;94796.56;4924846;29;20230;-87
2024/01/07 00:05:57;;;;;;;9.53;8.33;;;;;;;4.61;90.53;94802.16;4870174;29;20242;-86
2024/01/07 00:08:23;;;;;;;9.23;8.33;;;;;;;4.58;90.80;94801.66;4899278;29;20208;-88
2024/01/07 00:10:50;;;;;;;9.27;8.30;;;;;;;4.55;91.37;94819.81;4949131;28;20228;-87
2024/01/07 00:13:21;;;;;;;9.40;8.10;;;;;;;4.54;91.64;94821.56;4952225;28;20255;-87
2024/01/07 00:19:01;;;;;;;9.57;8.30;;;;;;;4.62;91.69;94823.34;4959734;28;20274;-88
2024/01/07 00:22:03;;;;;;;9.50;8.53;;;;;;;4.59;91.28;94814.25;4971637;28;20296;-87
2024/01/07 00:24:46;;;;;;;9.13;8.17;;;;;;;4.62;91.67;94828.44;5016295;23;20234;-87
2024/01/07 00:27:12;;;;;;;9.53;8.50;;;;;;;4.62;91.65;94813.91;4970385;28;20662;-87
2024/01/07 00:30:05;;;;;;;8.97;7.90;;;;;;;4.68;91.33;94815.03;4988361;28;20561;-91
2024/01/07 00:32:32;;;;;;;9.37;8.30;;;;;;;4.58;91.30;94815.22;4991012;28;20305;-90
2024/01/07 00:34:58;;;;;;;9.07;8.17;;;;;;;4.60;91.70;94820.94;4989268;28;20220;-90
2024/01/07 00:37:44;;;;;;;9.20;8.23;;;;;;;4.53;91.56;94821.72;4996713;28;20685;-90
2024/01/07 00:40:13;;;;;;;8.90;8.00;;;;;;;4.55;91.20;94820.63;4989370;28;20201;-90
2024/01/07 00:42:39;;;;;;;9.57;8.57;;;;;;;4.55;91.71;94830.81;4990887;28;20210;-90
2024/01/07 00:45:07;;;;;;;9.07;8.17;;;;;;;4.56;91.83;94826.50;4990748;28;20579;-90
2024/01/07 00:47:33;;;;;;;8.70;7.80;;;;;;;4.58;91.88;94822.06;4991112;28;20203;-90
2024/01/07 00:50:16;;;;;;;9.57;8.60;;;;;;;4.63;91.75;94824.91;4988878;28;20588;-90
2024/01/07 00:52:48;;;;;;;9.07;7.97;;;;;;;4.61;91.73;94825.09;4990347;28;20219;-90
2024/01/07 00:55:26;;;;;;;9.60;8.20;;;;;;;4.65;90.79;94807.69;4986039;28;20565;-89
2024/01/07 00:57:53;;;;;;;9.20;8.27;;;;;;;4.64;91.00;94808.66;4971860;28;20669;-90
2024/01/07 01:00:29;;;;;;;9.57;8.57;;;;;;;4.61;91.04;94812.34;4971384;28;20204;-90
2024/01/07 01:03:10;;;;;;;9.57;8.37;;;;;;;4.64;91.15;94806.91;4984834;28;20233;-90
2024/01/07 01:05:36;;;;;;;9.00;8.10;;;;;;;4.66;91.01;94809.28;4990627;28;20235;-91
2024/01/07 01:08:03;;;;;;;9.40;8.50;;;;;;;4.67;91.10;94813.44;4986104;28;20200;-91
2024/01/07 01:10:31;;;;;;;8.93;8.00;;;;;;;4.62;91.01;94813.91;4990401;28;20192;-90
2024/01/07 01:12:57;;;;;;;9.30;8.40;;;;;;;4.63;90.91;94817.25;4989973;28;20227;-90
2024/01/07 01:15:35;;;;;;;9.70;8.70;;;;;;;4.62;90.99;94821.56;4990143;28;20290;-91
2024/01/07 01:18:01;;;;;;;9.23;8.30;;;;;;;4.64;91.04;94817.09;4989212;28;20209;-90
2024/01/07 01:20:28;;;;;;;9.40;8.40;;;;;;;4.65;91.01;94818.69;4989938;28;20211;-89
2024/01/07 01:22:54;;;;;;;9.07;8.17;;;;;;;4.70;91.19;94818.22;4988531;28;20200;-89
2024/01/07 01:25:21;;;;;;;9.33;8.43;;;;;;;4.69;91.17;94824.28;4992050;28;20290;-90
2024/01/07 01:27:58;;;;;;;9.33;8.43;;;;;;;4.71;90.64;94809.63;4990639;28;20258;-90
2024/01/07 01:30:24;;;;;;;8.67;7.77;;;;;;;4.74;90.54;94816.97;4989418;28;20206;-90
2024/01/07 01:32:51;;;;;;;9.20;8.30;;;;;;;4.71;90.47;94812.16;4989866;28;20678;-90
2024/01/07 01:35:17;;;;;;;9.97;8.90;;;;;;;4.62;90.83;94816.47;4988930;28;20203;-90
2024/01/07 01:38:01;;;;;;;9.67;8.67;;;;;;;4.64;91.03;94824.75;4990040;28;20208;-90
2024/01/07 01:40:28;;;;;;;9.23;8.33;;;;;;;4.66;91.04;94812.66;4986375;28;21491;-90
2024/01/07 01:43:00;;;;;;;8.90;8.00;;;;;;;4.66;90.96;94812.66;4989626;28;20199;-90
2024/01/07 01:45:40;;;;;;;9.13;8.23;;;;;;;4.70;90.50;94810.56;4989785;28;20199;-91
2024/01/07 01:48:07;;;;;;;9.50;8.60;;;;;;;4.66;90.64;94817.75;4989826;28;20584;-90
2024/01/07 01:50:40;;;;;;;8.70;7.80;;;;;;;4.66;90.16;94805.00;4989703;28;20314;-91
2024/01/07 01:56:28;;;;;;;8.70;7.90;;;;;;;4.60;90.71;94808.19;4983933;28;20291;-90
2024/01/07 01:58:56;;;;;;;9.07;8.17;;;;;;;4.59;90.60;94804.06;4989794;28;20210;-91
2024/01/07 02:01:37;;;;;;;8.33;7.53;;;;;;;4.59;90.66;94806.59;4989185;28;20207;-90
2024/01/07 02:04:03;;;;;;;8.57;7.67;;;;;;;4.57;90.60;94807.72;4989064;28;20241;-90
2024/01/07 02:06:39;;;;;;;8.30;7.50;;;;;;;4.58;91.14;94819.50;4989423;28;20575;-90
2024/01/07 02:09:20;;;;;;;8.53;7.63;;;;;;;4.56;90.78;94819.66;4989707;28;20195;-91
2024/01/07 02:12:11;;;;;;;;;;;;;;;;;;;;;
2024/01/07 02:14:40;;;;;;;8.40;7.60;;;;;;;4.57;91.36;94823.81;4989110;28;20258;-91
2024/01/07 02:17:06;;;;;;;7.60;6.80;;;;;;;4.58;91.17;94806.75;4988668;28;20657;-91
2024/01/07 02:19:33;;;;;;;9.00;8.10;;;;;;;4.55;91.36;94817.28;4988919;28;20199;-90
2024/01/07 02:22:05;;;;;;;8.57;7.77;;;;;;;4.55;90.93;94809.63;4988277;28;20249;-90
2024/01/07 02:24:39;;;;;;;7.90;7.10;;;;;;;4.56;91.00;94804.38;4988876;28;20335;-90
2024/01/07 02:29:57;;;;;;;8.27;7.47;;;;;;;4.55;90.96;94799.44;4959724;28;20211;-90
2024/01/07 02:32:26;;;;;;;8.17;7.40;;;;;;;4.53;91.31;94808.97;4988289;28;20199;-90
2024/01/07 02:34:53;;;;;;;8.27;7.47;;;;;;;4.56;91.20;94816.31;4988597;28;20234;-90
2024/01/07 02:37:42;;;;;;;7.90;7.20;;;;;;;4.55;91.35;94802.78;4988802;28;20237;-91
2024/01/07 02:40:20;;;;;;;8.97;7.20;;;;;;;4.54;91.16;94816.47;4969302;28;20689;-90
2024/01/07 02:43:00;;;;;;;7.63;6.93;;;;;;;4.51;91.30;94820.13;4970808;28;20761;-91
2024/01/07 02:48:31;;;;;;;7.83;7.13;;;;;;;4.47;92.23;94833.34;4988251;28;20199;-90
2024/01/07 02:51:13;;;;;;;8.13;7.33;;;;;;;4.48;91.94;94830.63;4988485;28;20207;-90
2024/01/07 02:54:01;;;;;;;;;;;;;;;;;;;;;
2024/01/07 02:56:31;;;;;;;8.23;7.43;;;;;;;4.44;91.88;94821.69;4988887;28;20196;-90
2024/01/07 02:59:04;;;;;;;8.30;7.50;;;;;;;4.46;92.09;94827.44;4984522;28;20210;-90
2024/01/07 03:01:40;;;;;;;;;;;;;;;;;;;;;
2024/01/07 03:04:11;;;;;;;7.43;6.73;;;;;;;4.47;91.99;94818.84;4983112;28;20230;-91
2024/01/07 03:06:38;;;;;;;8.30;7.50;;;;;;;4.44;91.89;94819.16;4988416;28;20202;-90
2024/01/07 03:09:04;;;;;;;8.37;7.57;;;;;;;4.39;92.08;94823.16;4988938;28;20629;-91
2024/01/07 03:11:32;;;;;;;7.80;7.10;;;;;;;4.41;92.90;94832.25;4977292;28;20192;-90
2024/01/07 03:14:12;;;;;;;8.17;7.37;;;;;;;4.45;92.45;94832.69;4969950;28;20233;-89
2024/01/07 03:16:38;;;;;;;7.87;7.07;;;;;;;4.50;92.41;94826.19;4983188;28;20195;-89
2024/01/07 03:19:12;;;;;;;7.50;6.80;;;;;;;4.52;92.16;94823.47;4988536;28;20203;-88
2024/01/07 03:21:52;;;;;;;7.80;7.10;;;;;;;4.54;91.76;94819.03;4988467;28;20199;-90
2024/01/07 03:24:19;;;;;;;7.67;6.87;;;;;;;4.52;91.49;94818.38;4987982;28;20247;-89
2024/01/07 03:26:47;;;;;;;7.80;7.00;;;;;;;4.51;91.75;94819.34;4988278;28;20210;-89
2024/01/07 03:29:36;;;;;;;7.80;7.00;;;;;;;4.50;92.18;94833.81;4980843;28;20332;-88
2024/01/07 03:32:02;;;;;;;7.47;6.63;;;;;;;4.48;92.20;94833.19;4977186;28;20215;-89
2024/01/07 03:34:37;;;;;;;8.37;7.57;;;;;;;4.50;92.56;94838.13;4987915;28;20303;-89
2024/01/07 03:37:17;;;;;;;7.37;6.67;;;;;;;4.48;92.38;94828.09;4988697;28;20672;-88
2024/01/07 03:39:45;;;;;;;7.80;7.10;;;;;;;4.50;92.36;94833.81;4988092;28;20195;-89
2024/01/07 03:42:13;;;;;;;7.50;6.70;;;;;;;4.45;92.07;94830.94;4988639;28;20203;-89
2024/01/07 03:44:39;;;;;;;7.33;6.63;;;;;;;4.46;92.09;94829.19;4988128;28;20267;-88
2024/01/07 03:47:24;;;;;;;7.70;6.77;;;;;;;4.47;92.34;94841.00;4988150;28;20204;-89
2024/01/07 03:52:36;;;;;;;7.63;6.67;;;;;;;4.44;92.86;94847.19;4972218;28;20213;-89
2024/01/07 03:55:03;;;;;;;7.63;6.93;;;;;;;4.49;92.76;94849.28;4976021;28;20310;-89
2024/01/07 03:57:33;;;;;;;7.43;6.73;;;;;;;4.52;92.17;94841.31;5011733;28;20210;-88
2024/01/07 03:59:59;;;;;;;7.13;6.43;;;;;;;4.50;92.10;94846.56;4993107;28;20195;-91
2024/01/07 04:02:38;;;;;;;7.33;6.63;;;;;;;4.50;92.02;94841.47;4994910;28;20278;-89
2024/01/07 04:05:05;;;;;;;7.60;6.97;;;;;;;4.48;92.01;94840.81;4986747;28;20228;-89
2024/01/07 04:07:38;;;;;;;7.27;6.60;;;;;;;4.49;91.95;94839.88;4993383;28;20211;-88
2024/01/07 04:10:05;;;;;;;7.47;6.77;;;;;;;4.45;92.37;94843.69;4991304;28;20219;-89
2024/01/07 04:12:42;;;;;;;7.40;6.70;;;;;;;4.46;92.29;94845.28;4991366;28;20203;-89
2024/01/07 04:23:59;;;;;;;7.73;6.93;;;;;;;4.51;92.92;94862.66;4989037;28;20239;-89
2024/01/07 04:26:26;;;;;;;7.77;7.07;;;;;;;4.50;92.38;94855.97;4983322;28;20212;-89
2024/01/07 04:29:11;;;;;;;7.57;6.87;;;;;;;4.48;92.65;94860.41;4991506;28;20583;-89
2024/01/07 04:31:38;;;;;;;7.90;7.20;;;;;;;4.48;92.54;94860.41;4990220;28;20210;-88
2024/01/07 04:34:04;;;;;;;7.30;6.60;;;;;;;4.51;92.50;94860.13;4991278;28;20622;-88
2024/01/07 04:40:01;;;;;;;7.47;6.77;;;;;;;4.48;91.93;94857.88;4987488;28;20206;-88
2024/01/07 04:42:45;;;;;;;7.53;6.83;;;;;;;4.50;92.37;94868.72;4991470;28;20229;-89
2024/01/07 04:45:18;;;;;;;7.03;6.43;;;;;;;4.51;91.97;94867.75;4990447;28;20198;-89
2024/01/07 04:48:05;;;;;;;7.70;6.80;;;;;;;4.51;92.07;94865.22;4989971;28;20200;-88
2024/01/07 04:50:32;;;;;;;6.97;6.33;;;;;;;4.48;92.31;94868.06;4971220;28;20851;-89
2024/01/07 04:56:31;;;;;;;7.37;6.67;;;;;;;4.50;92.46;94884.00;4989595;28;20213;-88
2024/01/07 04:59:01;;;;;;;7.73;7.03;;;;;;;4.42;92.17;94872.06;4966825;28;20215;-89
2024/01/07 05:01:50;;;;;;;8.03;7.23;;;;;;;4.42;92.52;94891.66;4971288;28;20200;-88
2024/01/07 05:07:12;;;;;;;7.30;6.60;;;;;;;4.39;92.63;94897.84;4990267;28;20207;-89
2024/01/07 05:09:59;;;;;;;8.33;7.43;;;;;;;4.44;92.90;94907.56;4988928;28;20290;-89
2024/01/07 05:12:25;;;;;;;7.63;6.83;;;;;;;4.43;92.73;94911.84;4990462;28;20207;-88
2024/01/07 05:15:15;;;;;;;7.63;6.93;;;;;;;4.40;92.97;94919.03;4990194;28;20745;-88
2024/01/07 05:17:43;;;;;;;8.00;7.17;;;;;;;4.47;92.84;94914.91;4970888;28;20601;-89
2024/01/07 05:20:18;;;;;;;7.80;7.10;;;;;;;4.50;92.62;94920.50;4980454;28;20293;-88
2024/01/07 05:23:04;;;;;;;7.90;7.20;;;;;;;4.49;92.50;94906.16;4990392;28;20210;-89
2024/01/07 05:25:38;;;;;;;7.43;6.73;;;;;;;4.51;92.66;94895.78;4984679;28;20757;-88
2024/01/07 05:28:19;;;;;;;8.50;7.70;;;;;;;4.50;92.18;94897.53;4990133;28;20196;-89
2024/01/07 05:33:37;;;;;;;8.33;7.53;;;;;;;4.49;92.76;94902.78;4969304;28;20260;-90
2024/01/07 05:36:05;;;;;;;8.40;7.60;;;;;;;4.45;92.29;94904.84;4979259;28;20703;-89
2024/01/07 05:38:33;;;;;;;8.40;7.60;;;;;;;4.44;92.01;94898.16;4990550;28;20210;-89
2024/01/07 05:41:14;;;;;;;8.50;7.70;;;;;;;4.39;92.65;94905.50;4988385;28;20207;-89
2024/01/07 05:43:41;;;;;;;8.30;7.50;;;;;;;4.31;93.06;94910.56;4990093;28;20253;-88
2024/01/07 05:46:12;;;;;;;8.50;7.70;;;;;;;4.27;92.96;94916.09;4989506;28;20709;-89
2024/01/07 05:48:55;;;;;;;8.37;7.47;;;;;;;4.20;93.79;94931.22;4989991;28;20266;-88
2024/01/07 05:51:22;;;;;;;7.57;6.87;;;;;;;4.29;93.75;94937.94;4988886;28;20199;-89
2024/01/07 05:53:48;;;;;;;7.83;7.10;;;;;;;4.32;93.93;94934.28;4989747;28;20318;-89
2024/01/07 05:56:15;;;;;;;8.13;7.33;;;;;;;4.32;93.67;94941.94;4987083;28;20204;-89
2024/01/07 05:58:41;;;;;;;7.77;7.07;;;;;;;4.36;93.58;94936.38;4987467;28;20207;-89
2024/01/07 06:01:20;;;;;;;8.20;7.40;;;;;;;4.39;92.95;94933.53;4989162;28;20199;-89
2024/01/07 06:03:47;;;;;;;7.53;6.73;;;;;;;4.32;92.66;94930.00;4991323;28;20672;-89
2024/01/07 06:06:15;;;;;;;7.83;7.07;;;;;;;4.20;93.84;94935.53;4980215;28;20203;-89
2024/01/07 06:08:42;;;;;;;7.80;7.00;;;;;;;4.12;94.74;94959.22;4989645;28;20203;-88
2024/01/07 06:11:18;;;;;;;;;;;;;;;;;;;;;
2024/01/07 06:13:45;;;;;;;7.23;6.53;;;;;;;4.17;94.97;94969.75;4987179;28;20622;-87
2024/01/07 06:16:14;;;;;;;8.33;6.33;;;;;;;4.18;95.04;94973.09;4987497;28;20203;-88
2024/01/07 06:18:41;;;;;;;8.60;6.60;;;;;;;4.60;100.00;95184.69;4990586;28;20196;-89
2024/01/07 06:21:07;;;;;;;6.80;6.10;;;;;;;4.70;100.00;95091.03;4989334;28;20210;-89
2024/01/07 06:23:44;;;;;;;6.27;5.63;;;;;;;4.66;96.31;94962.25;4989998;28;20836;-89
2024/01/07 06:26:11;;;;;;;7.13;6.40;;;;;;;4.61;94.12;94928.81;4988984;28;20195;-89
2024/01/07 06:28:37;;;;;;;6.10;5.50;;;;;;;4.59;93.74;94920.53;4979272;28;20207;-87
2024/01/07 06:31:12;;;;;;;6.23;5.63;;;;;;;4.58;93.21;94912.06;4989606;28;20215;-88
2024/01/07 06:33:55;;;;;;;6.27;5.70;;;;;;;4.56;92.83;94918.28;4989772;28;20623;-88
2024/01/07 06:36:28;;;;;;;6.03;5.43;;;;;;;4.48;93.08;94927.47;4981383;28;20218;-88
2024/01/07 06:38:57;;;;;;;6.67;5.97;;;;;;;4.45;93.21;94932.09;4990084;28;20286;-87
2024/01/07 06:41:30;;;;;;;6.30;5.70;;;;;;;4.45;93.39;94929.53;4990333;28;20215;-88
2024/01/07 06:43:56;;;;;;;6.00;5.50;;;;;;;4.46;93.42;94937.03;4989436;28;20212;-88
2024/01/07 06:46:49;;;;;;;6.37;5.77;;;;;;;4.49;93.49;94944.38;4987526;28;20771;-89
2024/01/07 06:49:22;;;;;;;5.97;5.37;;;;;;;4.41;93.29;94939.28;4981198;28;20196;-88
2024/01/07 06:52:09;;;;;;;6.33;5.73;;;;;;;4.31;94.06;94947.97;4978962;28;20569;-90
2024/01/07 06:54:39;;;;;;;6.10;5.50;;;;;;;4.26;94.28;94960.38;4976924;28;20226;-89
2024/01/07 06:57:05;;;;;;;5.87;5.27;;;;;;;4.30;94.62;94972.66;4981987;28;20208;-88
2024/01/07 06:59:32;;;;;;;6.00;5.37;;;;;;;4.34;94.31;94973.94;4980334;28;20277;-90
2024/01/07 07:02:08;;;;;;;6.30;5.43;;;;;;;4.34;94.17;94978.25;4978122;28;20211;-88
2024/01/07 07:04:34;;;;;;;6.03;5.40;;;;;;;4.38;100.00;95128.16;4984415;28;20222;-87
2024/01/07 07:07:01;;;;;;;6.00;5.40;;;;;;;4.40;97.89;95033.72;4982934;28;20633;-88
2024/01/07 07:09:28;;;;;;;5.73;5.20;;;;;;;4.45;95.69;94998.34;4987838;28;20231;-88
2024/01/07 07:11:56;;;;;;;5.30;4.80;;;;;;;4.47;94.74;94981.97;4987886;28;20209;-89
2024/01/07 07:14:36;;;;;;;5.90;5.30;;;;;;;4.48;94.04;94975.13;4988082;28;20223;-88
2024/01/07 07:17:09;;;;;;;5.70;5.13;;;;;;;4.45;93.71;94980.50;4987308;28;20191;-89
2024/01/07 07:19:54;;;;;;;5.97;5.37;;;;;;;4.47;93.88;94986.25;4988428;28;20696;-89
2024/01/07 07:22:20;;;;;;;5.87;5.27;;;;;;;4.36;93.56;94982.25;4990358;28;20203;-87
2024/01/07 07:24:47;;;;;;;5.90;5.30;;;;;;;4.21;94.24;94993.16;4992687;28;20211;-88
2024/01/07 07:27:18;;;;;;;6.97;6.27;;;;;;;4.20;95.19;95006.84;5011246;28;20233;-88
2024/01/07 07:29:54;;;;;;;6.70;5.37;;;;;;;4.22;95.50;95021.03;5003759;28;20192;-87
2024/01/07 07:32:20;;;;;;;6.73;6.03;;;;;;;4.22;95.40;95021.03;4992873;28;20792;-88
2024/01/07 07:34:47;;;;;;;6.17;5.57;;;;;;;4.25;95.03;95020.72;4992311;28;20243;-88
2024/01/07 07:37:31;;;;;;;6.57;5.70;;;;;;;4.25;94.63;95027.56;4992737;28;20211;-89
2024/01/07 07:39:58;;;;;;;6.17;5.57;;;;;;;4.19;94.92;95023.91;4992587;28;20234;-88
2024/01/07 07:42:26;;;;;;;6.57;5.77;;;;;;;4.19;95.04;95033.28;4992901;28;20204;-88
2024/01/07 07:45:16;;;;;;;6.67;5.93;;;;;;;4.45;100.00;95227.75;4990909;28;20227;-88
2024/01/07 07:47:44;;;;;;;5.87;5.27;;;;;;;4.56;100.00;95101.81;4992433;28;20233;-88
2024/01/07 07:50:11;;;;;;;5.70;5.13;;;;;;;4.54;95.67;95037.44;4989356;28;20689;-88
2024/01/07 07:52:39;;;;;;;6.00;5.40;;;;;;;4.46;94.51;95017.78;4992391;28;20669;-89
2024/01/07 07:55:20;;;;;;;6.30;5.60;;;;;;;4.40;93.81;95010.78;5005250;22;20235;-89
2024/01/07 07:57:48;;;;;;;6.17;5.53;;;;;;;4.39;93.82;95012.53;4973189;28;20188;-88
2024/01/07 08:00:38;;;;;;;7.87;5.90;;;;;;;4.31;93.96;95024.41;4982084;28;20196;-87
2024/01/07 08:03:05;;;;;;;6.37;5.77;;;;;;;4.28;94.41;95033.16;4982017;28;20208;-88
2024/01/07 08:05:34;;;;;;;9.17;6.10;;;;;;;4.28;94.55;95025.50;4965454;28;20201;-89
2024/01/07 08:08:00;;;;;;;6.47;5.77;;;;;;;4.30;94.04;95028.72;4951208;29;20573;-89
2024/01/07 08:17:10;;;;;;;6.43;5.83;;;;;;;4.30;94.12;95046.56;4904904;29;20214;-88
2024/01/07 08:19:41;;;;;;;6.27;5.60;;;;;;;4.30;94.27;95051.66;4884715;29;20570;-87
2024/01/07 08:22:26;;;;;;;6.40;5.80;;;;;;;4.36;94.19;95053.59;4894115;29;20298;-87
2024/01/07 08:24:53;;;;;;;7.70;6.17;;;;;;;4.39;93.60;95052.50;4898115;29;20242;-88
2024/01/07 08:27:45;;;;;;;7.53;6.50;;;;;;;4.35;93.64;95051.19;4912392;29;20297;-89
2024/01/07 08:30:42;;;;;;;6.73;6.03;;;;;;;4.32;93.80;95062.50;4907758;28;20235;-88
2024/01/07 08:33:09;;;;;;;6.60;5.90;;;;;;;4.24;93.84;95059.88;4966701;28;20315;-87
2024/01/07 08:35:42;;;;;;;6.30;5.70;;;;;;;4.23;94.09;95067.72;4961113;28;20260;-87
2024/01/07 08:38:26;;;;;;;6.73;6.03;;;;;;;4.14;94.56;95077.84;4951701;28;20263;-87
2024/01/07 08:40:52;;;;;;;6.77;5.90;;;;;;;4.16;94.97;95088.69;4953164;29;20213;-83
2024/01/07 08:46:38;;;;;;;6.87;6.10;;;;;;;4.16;94.59;95093.78;4973361;28;20211;-87
2024/01/07 08:49:38;;;;;;;7.97;6.53;;;;;;;4.15;93.79;95081.97;4940933;28;20849;-89
2024/01/07 08:55:10;;;;;;;7.57;6.60;;;;;;;4.16;94.52;95093.78;4954375;28;20710;-88
2024/01/07 09:00:18;;;;;;;9.53;7.47;;;;;;;4.18;94.36;95101.28;4952394;28;20276;-88
2024/01/07 09:02:47;;;;;;;8.90;7.20;;;;;;;4.13;94.68;95106.81;4956689;28;20741;-87
2024/01/07 09:05:44;;;;;;;9.43;7.67;;;;;;;4.12;94.65;95109.50;4961063;28;20755;-87
2024/01/07 09:08:35;;;;;;;7.77;6.97;;;;;;;4.10;94.39;95119.84;4953173;29;20639;-88
2024/01/07 09:11:02;;;;;;;9.43;7.10;;;;;;;4.14;94.70;95125.44;4950616;28;20236;-88
2024/01/07 09:13:34;;;;;;;8.53;7.73;;;;;;;4.17;94.87;95132.78;4961261;28;20239;-87
2024/01/07 09:16:11;;;;;;;8.23;7.30;;;;;;;4.22;94.56;95128.06;4972045;28;20873;-86
2024/01/07 09:19:14;;;;;;;10.40;8.40;;;;;;;4.25;93.55;95117.53;4970868;28;20674;-89
2024/01/07 09:22:07;;;;;;;8.60;7.10;;;;;;;4.15;93.56;95115.09;4879813;29;20208;-87
2024/01/07 09:27:23;;;;;;;7.93;7.13;;;;;;;4.16;93.93;95123.53;4927651;28;20694;-85
2024/01/07 09:29:52;;;;;;;8.77;7.40;;;;;;;4.09;93.52;95119.97;4933960;29;20221;-86
2024/01/07 09:32:19;;;;;;;9.40;7.57;;;;;;;4.08;94.05;95128.56;4968708;28;20247;-85
2024/01/07 09:34:48;;;;;;;8.37;7.40;;;;;;;4.17;94.13;95142.97;4952013;28;20223;-85
2024/01/07 09:37:22;;;;;;;10.23;8.70;;;;;;;4.23;93.87;95128.84;4951255;28;20209;-86
2024/01/07 09:39:49;;;;;;;11.83;9.70;;;;;;;4.23;93.84;95131.41;4948980;28;20204;-86
2024/01/07 09:42:21;;;;;;;10.03;8.43;;;;;;;4.20;94.00;95131.69;4958197;28;20741;-87
2024/01/07 09:45:42;;;;;;;9.63;7.93;;;;;;;4.25;94.00;95137.91;4951022;28;20225;-87
2024/01/07 09:48:41;;;;;;;8.20;7.07;;;;;;;4.32;93.61;95133.84;4884019;29;20207;-89
2024/01/07 09:51:39;;;;;;;8.27;7.40;;;;;;;4.38;92.98;95122.25;4894415;29;20228;-88
2024/01/07 09:54:41;;;;;;;9.10;7.93;;;;;;;4.29;92.66;95107.84;4904767;29;20313;-87
2024/01/07 09:58:06;;;;;;;;;;;;;;;;;;;;;
2024/01/07 10:01:01;;;;;;;9.53;7.37;;;;;;;4.35;92.65;95112.34;4943855;28;20204;-88
2024/01/07 10:03:36;;;;;;;8.53;7.53;;;;;;;4.36;92.53;95117.31;4951217;28;20684;-89
2024/01/07 10:06:10;;;;;;;8.40;6.93;;;;;;;4.27;91.62;95099.56;4951165;28;20230;-87
2024/01/07 10:08:45;;;;;;;8.03;7.13;;;;;;;4.26;92.29;95108.94;4949653;28;20851;-88
2024/01/07 10:11:14;;;;;;;7.70;6.70;;;;;;;4.32;92.34;95113.47;4949994;28;20200;-90
2024/01/07 10:13:42;;;;;;;8.20;7.40;;;;;;;4.38;92.39;95117.16;4951506;28;20789;-88
2024/01/07 10:16:09;;;;;;;8.00;7.03;;;;;;;4.41;91.95;95104.13;4947309;28;20316;-87
2024/01/07 10:18:38;;;;;;;8.07;7.27;;;;;;;4.44;91.78;95107.16;4950469;28;20777;-86
2024/01/07 10:21:05;;;;;;;8.50;7.60;;;;;;;4.43;91.78;95110.66;4949972;28;20212;-86
2024/01/07 10:23:31;;;;;;;8.27;7.23;;;;;;;4.40;92.14;95115.25;4952533;28;20259;-86
2024/01/07 10:25:58;;;;;;;7.73;6.90;;;;;;;4.45;91.51;95108.75;4950600;29;20288;-85
2024/01/07 10:28:25;;;;;;;8.67;7.00;;;;;;;4.53;91.41;95100.34;4950983;29;20204;-85
2024/01/07 10:30:53;;;;;;;9.27;7.47;;;;;;;4.39;91.55;95099.19;4949495;28;20220;-85
2024/01/07 10:33:20;;;;;;;7.70;6.90;;;;;;;4.39;92.30;95122.13;4952022;28;20305;-86
2024/01/07 10:35:52;;;;;;;8.03;7.10;;;;;;;4.35;92.17;95118.25;4949831;29;20220;-86
2024/01/07 10:38:19;;;;;;;8.47;7.20;;;;;;;4.40;92.48;95126.25;4950836;29;20189;-85
2024/01/07 10:40:48;;;;;;;8.70;7.53;;;;;;;4.40;92.60;95131.34;4950560;29;20212;-85
2024/01/07 10:43:16;;;;;;;7.57;6.77;;;;;;;4.47;92.07;95126.44;4950685;29;20232;-85
2024/01/07 10:45:48;;;;;;;7.73;6.60;;;;;;;4.36;92.09;95117.31;4964208;28;20203;-86
2024/01/07 10:48:20;;;;;;;9.13;7.13;;;;;;;4.41;92.34;95137.25;4950238;28;20291;-86
2024/01/07 10:50:50;;;;;;;9.23;7.27;;;;;;;4.42;92.31;95129.47;4954632;28;20758;-85
2024/01/07 10:53:19;;;;;;;7.70;6.90;;;;;;;4.45;91.70;95123.25;4981634;23;20328;-86
2024/01/07 10:55:53;;;;;;;8.60;7.00;;;;;;;4.48;91.55;95116.09;4975952;28;20204;-86
2024/01/07 10:58:21;;;;;;;8.60;7.53;;;;;;;4.43;91.46;95108.09;4977270;28;20601;-86
2024/01/07 11:00:49;;;;;;;7.73;6.90;;;;;;;4.41;91.64;95121.97;4977985;28;20696;-85
2024/01/07 11:03:23;;;;;;;9.03;6.63;;;;;;;4.45;92.03;95123.25;4973762;28;20586;-85
2024/01/07 11:05:55;;;;;;;8.50;7.17;;;;;;;4.45;91.79;95108.75;4951953;28;20664;-86
2024/01/07 11:08:27;;;;;;;8.80;7.40;;;;;;;4.43;91.61;95123.38;4950777;29;20212;-86
2024/01/07 11:10:59;;;;;;;7.73;6.87;;;;;;;4.46;92.00;95120.53;4954931;28;20211;-85
2024/01/07 11:13:38;;;;;;;7.97;7.10;;;;;;;4.42;91.65;95123.56;4960768;28;20729;-85
2024/01/07 11:16:05;;;;;;;8.83;7.57;;;;;;;4.38;91.71;95123.06;4958998;28;20224;-86
2024/01/07 11:18:34;;;;;;;9.00;7.77;;;;;;;4.45;91.82;95124.03;4955442;28;20193;-85
2024/01/07 11:21:02;;;;;;;8.23;7.33;;;;;;;4.48;91.77;95121.19;4946566;29;20276;-85
2024/01/07 11:23:32;;;;;;;9.93;8.00;;;;;;;4.45;91.46;95113.03;4949699;29;20219;-86
2024/01/07 11:25:59;;;;;;;9.50;7.83;;;;;;;4.43;91.47;95113.19;4948990;29;20709;-87
2024/01/07 11:28:47;;;;;;;8.70;7.13;;;;;;;4.51;91.39;95120.09;4950090;29;20207;-86
2024/01/07 11:31:17;;;;;;;8.77;6.70;;;;;;;4.53;91.28;95112.31;4946217;29;20574;-85
2024/01/07 11:33:49;;;;;;;6.20;5.57;;;;;;;4.43;91.70;95108.09;4950322;28;20254;-84
2024/01/07 11:36:16;;;;;;;6.17;5.40;;;;;;;4.60;100.00;95284.91;4949414;29;20228;-86
2024/01/07 11:38:44;;;;;;;6.50;5.77;;;;;;;4.66;93.86;95138.19;4951923;28;20235;-86
2024/01/07 11:41:13;;;;;;;6.97;6.10;;;;;;;4.62;91.78;95104.53;4944752;28;20243;-87
2024/01/07 11:43:52;;;;;;;7.40;5.87;;;;;;;4.56;91.04;95094.97;4950804;29;20235;-87
2024/01/07 11:46:18;;;;;;;6.20;5.60;;;;;;;4.50;90.84;95090.47;4950082;29;20200;-86
2024/01/07 11:48:47;;;;;;;6.30;5.70;;;;;;;4.54;90.63;95094.31;4950255;29;20211;-86
2024/01/07 11:51:13;;;;;;;7.03;5.97;;;;;;;4.48;90.74;95093.16;4947606;29;20205;-85
2024/01/07 11:53:42;;;;;;;7.83;5.57;;;;;;;4.38;90.75;95089.94;4949643;28;20221;-86
2024/01/07 11:56:09;;;;;;;6.03;5.43;;;;;;;4.35;90.29;95081.78;4949657;28;20316;-85
2024/01/07 11:58:35;;;;;;;5.87;5.20;;;;;;;4.27;89.50;95058.78;4950131;29;20204;-86
2024/01/07 12:01:03;;;;;;;6.10;5.50;;;;;;;4.19;89.93;95069.75;4949493;29;20205;-86
2024/01/07 12:03:31;;;;;;;5.77;5.23;;;;;;;4.13;90.38;95088.97;4950502;29;20288;-86
2024/01/07 12:05:59;;;;;;;5.80;5.20;;;;;;;4.10;90.68;95096.91;4949819;29;20292;-86
2024/01/07 12:08:36;;;;;;;6.60;5.90;;;;;;;4.22;90.88;95110.22;4948876;28;20671;-86
2024/01/07 12:11:03;;;;;;;5.87;5.27;;;;;;;4.28;90.32;95099.41;4949799;28;20628;-86
2024/01/07 12:13:29;;;;;;;6.87;5.67;;;;;;;4.32;89.89;95093.06;4954261;29;20217;-86
2024/01/07 12:15:56;;;;;;;7.10;5.97;;;;;;;4.38;89.26;95094.22;4958766;28;20225;-85
2024/01/07 12:18:25;;;;;;;6.70;6.00;;;;;;;4.36;88.75;95085.94;4954224;29;20209;-86
2024/01/07 12:20:59;;;;;;;7.07;5.90;;;;;;;4.46;100.00;95265.03;4954024;29;20217;-85
2024/01/07 12:23:26;;;;;;;7.30;6.40;;;;;;;4.50;90.52;95104.00;4951156;28;20220;-86
2024/01/07 12:25:53;;;;;;;5.60;5.00;;;;;;;4.31;88.77;95063.44;4946899;29;20204;-86
2024/01/07 12:28:19;;;;;;;6.33;5.73;;;;;;;4.31;88.31;95067.75;4951727;29;20221;-86
2024/01/07 12:30:46;;;;;;;6.50;5.47;;;;;;;4.14;87.95;95054.91;4952446;29;20209;-85
2024/01/07 12:33:12;;;;;;;6.43;5.50;;;;;;;4.03;89.17;95088.28;4953355;29;20212;-86
2024/01/07 12:35:39;;;;;;;5.83;5.30;;;;;;;4.10;89.20;95094.34;4953342;29;20204;-86
2024/01/07 12:38:07;;;;;;;6.03;5.43;;;;;;;4.07;89.41;95088.75;4953542;29;20215;-86
2024/01/07 12:40:36;;;;;;;6.13;5.53;;;;;;;3.89;89.39;95086.25;4950942;29;20208;-85
2024/01/07 12:43:03;;;;;;;5.90;5.33;;;;;;;3.92;90.08;95113.16;4953084;28;20271;-86
2024/01/07 12:45:30;;;;;;;6.60;5.60;;;;;;;3.99;90.56;95117.53;4953140;29;20567;-86
2024/01/07 12:48:02;;;;;;;5.97;5.37;;;;;;;3.81;89.15;95102.28;4953819;29;20244;-85
2024/01/07 12:50:33;;;;;;;5.93;5.33;;;;;;;3.85;89.97;95117.25;4952743;28;20205;-86
2024/01/07 12:53:07;;;;;;;6.83;6.13;;;;;;;3.93;90.79;95143.56;4953402;28;20191;-85
2024/01/07 13:06:14;;;;;;;6.33;5.20;;;;;;;4.02;90.63;95158.00;4825836;29;20209;-85
2024/01/07 13:12:51;;;;;;;5.97;5.37;;;;;;;4.00;90.24;95154.00;4947482;28;20215;-85
2024/01/07 13:15:17;;;;;;;7.07;5.33;;;;;;;3.94;88.90;95129.09;4931692;29;20304;-85
2024/01/07 13:17:44;;;;;;;6.50;5.70;;;;;;;3.85;89.36;95147.81;4930075;29;20217;-85
2024/01/07 13:20:15;;;;;;;6.60;5.87;;;;;;;3.89;90.41;95159.28;4932327;29;20190;-86
2024/01/07 13:22:59;;;;;;;6.67;5.70;;;;;;;3.79;90.34;95156.81;4932369;29;20206;-85
2024/01/07 13:25:36;;;;;;;6.47;5.70;;;;;;;3.81;90.80;95181.19;4933705;29;20578;-85